Time;durP1;ratioP1;P1;durP2;ratioP2;P2;SDS_P1;SDS_P2;PMS_P1;PMS_P2;Temp;Humidity;BMP_temperature;BMP_pressure;BME280_temperature;BME280_humidity;BME280_pressure;Samples;Min_cycle;Max_cycle;Signal;HPM_P1;HPM_P2
2022/11/01 00:01:22;;;;;;;;;3.50;1.00;;;;;18.22;65.81;100789.28;5036506;28;46025;-54
2022/11/01 00:03:48;;;;;;;;;3.00;1.00;;;;;18.14;65.92;100784.84;5036458;28;45526;-52
2022/11/01 00:06:13;;;;;;;;;1.75;1.75;;;;;18.15;65.79;100792.72;5036223;28;45303;-55
2022/11/01 00:08:38;;;;;;;;;1.00;1.00;;;;;18.08;65.59;100802.63;5036713;28;45509;-55
2022/11/01 00:11:09;;;;;;;;;1.75;1.00;;;;;18.05;65.34;100786.84;5036402;28;46395;-54
2022/11/01 00:13:35;;;;;;;;;1.00;0.00;;;;;18.04;64.94;100811.28;5035030;28;45227;-55
2022/11/01 00:16:00;;;;;;;;;0.75;0.00;;;;;17.97;64.00;100808.53;5036511;28;45558;-55
2022/11/01 00:18:26;;;;;;;;;1.00;1.00;;;;;17.92;63.58;100819.88;5036542;28;45204;-57
2022/11/01 00:20:51;;;;;;;;;0.25;0.25;;;;;17.81;62.58;100808.78;5036124;28;46888;-53
2022/11/01 00:23:17;;;;;;;;;0.50;0.50;;;;;17.79;62.20;100822.44;5036542;28;45446;-57
2022/11/01 00:25:42;;;;;;;;;1.50;1.00;;;;;17.78;62.17;100828.00;5036389;28;45395;-57
2022/11/01 00:28:08;;;;;;;;;4.00;0.00;;;;;17.73;62.20;100833.91;5036736;28;45376;-56
2022/11/01 00:30:37;;;;;;;;;1.00;1.00;;;;;17.70;62.41;100829.78;5036187;28;46085;-54
2022/11/01 00:33:03;;;;;;;;;1.50;1.00;;;;;17.62;61.66;100834.44;5036138;28;45451;-56
2022/11/01 00:35:31;;;;;;;;;0.50;0.50;;;;;17.64;61.91;100837.75;5036424;28;45319;-54
2022/11/01 00:37:58;;;;;;;;;5.00;1.00;;;;;17.63;61.34;100846.88;5036489;28;45296;-57
2022/11/01 00:40:23;;;;;;;;;0.75;0.00;;;;;17.60;61.51;100852.63;5036078;28;46189;-56
2022/11/01 00:42:48;;;;;;;;;0.75;0.75;;;;;17.59;61.47;100857.16;5039406;28;45341;-54
2022/11/01 00:45:14;;;;;;;;;0.50;0.50;;;;;17.56;61.81;100851.34;5039317;28;45442;-57
2022/11/01 00:47:39;;;;;;;;;0.00;0.00;;;;;17.49;61.17;100850.41;5039679;28;45449;-51
2022/11/01 00:50:05;;;;;;;;;1.00;1.00;;;;;17.46;60.91;100873.16;5039518;28;46644;-57
2022/11/01 00:52:30;;;;;;;;;0.00;0.00;;;;;17.45;61.01;100882.25;5039447;28;45292;-56
2022/11/01 00:54:56;;;;;;;;;0.00;0.00;;;;;17.42;60.44;100886.13;5039498;28;45561;-52
2022/11/01 00:57:21;;;;;;;;;2.00;0.00;;;;;17.37;60.26;100895.81;5039568;28;45376;-52
2022/11/01 00:59:46;;;;;;;;;0.00;0.00;;;;;17.30;59.04;100893.00;5039182;28;47312;-55
2022/11/01 01:02:12;;;;;;;;;0.75;0.75;;;;;17.25;59.55;100897.28;5039254;28;45439;-55
2022/11/01 01:04:42;;;;;;;;;2.00;0.00;;;;;17.20;58.45;100917.50;5037950;28;45419;-56
2022/11/01 01:07:08;;;;;;;;;0.50;0.50;;;;;17.14;59.06;100922.78;5039541;28;45440;-56
2022/11/01 01:09:33;;;;;;;;;0.00;0.00;;;;;17.08;58.34;100926.22;5039067;28;46607;-57
2022/11/01 01:11:59;;;;;;;;;1.00;0.00;;;;;17.01;58.52;100923.41;5039022;28;45307;-52
2022/11/01 01:14:24;;;;;;;;;0.00;0.00;;;;;17.00;58.08;100937.06;5039419;28;45280;-53
2022/11/01 01:16:50;;;;;;;;;1.25;0.00;;;;;16.91;58.08;100945.19;5039251;28;45379;-57
2022/11/01 01:19:15;;;;;;;;;0.25;0.25;;;;;16.89;58.39;100949.06;5038775;28;46228;-50
2022/11/01 01:21:40;;;;;;;;;0.00;0.00;;;;;16.84;58.80;100948.78;5039043;28;45418;-53
2022/11/01 01:24:06;;;;;;;;;0.50;0.00;;;;;16.80;58.21;100958.22;5039318;28;45526;-51
2022/11/01 01:26:31;;;;;;;;;0.00;0.00;;;;;16.76;58.23;100962.31;5039309;28;45437;-55
2022/11/01 01:28:56;;;;;;;;;1.50;0.00;;;;;16.73;58.30;100965.34;5038753;28;45458;-55
2022/11/01 01:31:22;;;;;;;;;3.50;3.00;;;;;16.70;58.38;100969.22;5039057;28;45339;-52
2022/11/01 01:33:47;;;;;;;;;0.50;0.00;;;;;16.66;58.02;100966.03;5039041;28;45734;-54
2022/11/01 01:36:12;;;;;;;;;0.50;0.00;;;;;16.63;58.03;100961.03;5037806;28;45416;-55
2022/11/01 01:38:38;;;;;;;;;2.00;0.00;;;;;16.61;58.13;100973.00;5038882;28;47306;-56
2022/11/01 01:43:48;;;;;;;;;3.00;0.00;;;;;16.54;58.15;100986.28;5038610;28;45343;-53
2022/11/01 01:46:13;;;;;;;;;0.00;0.00;;;;;16.52;57.97;100987.47;5038631;28;45307;-56
2022/11/01 01:48:41;;;;;;;;;2.50;0.00;;;;;16.49;57.97;100998.59;5038207;28;46099;-56
2022/11/01 01:51:13;;;;;;;;;0.00;0.00;;;;;16.39;58.30;100991.63;5038509;28;45438;-53
2022/11/01 01:53:50;;;;;;;;;0.00;0.00;;;;;16.37;58.39;100996.31;5037524;28;45288;-52
2022/11/01 01:56:21;;;;;;;;;1.25;0.00;;;;;16.32;57.70;100995.19;5038610;28;45189;-53
2022/11/01 01:58:55;;;;;;;;;0.75;0.00;;;;;16.29;58.06;101017.00;5038107;28;46419;-56
2022/11/01 02:01:20;;;;;;;;;1.00;0.00;;;;;16.25;57.68;101008.47;5038342;28;45492;-53
2022/11/01 02:03:46;;;;;;;;;0.00;0.00;;;;;16.22;57.56;101008.81;5038223;28;45388;-56
2022/11/01 02:06:15;;;;;;;;;2.50;0.00;;;;;16.19;57.61;101022.63;5038603;28;45383;-53
2022/11/01 02:09:08;;;;;;;;;1.25;0.25;;;;;16.18;58.34;101028.97;5038220;28;45234;-56
2022/11/01 02:11:33;;;;;;;;;2.00;0.50;;;;;16.17;57.74;101028.13;5036613;28;45288;-56
2022/11/01 02:14:00;;;;;;;;;1.00;0.00;;;;;16.14;58.06;101030.38;5038077;28;45370;-56
2022/11/01 02:16:57;;;;;;;;;1.50;0.00;;;;;16.12;58.24;101043.09;5038469;28;45380;-51
2022/11/01 02:19:54;;;;;;;;;0.75;0.00;;;;;16.06;58.36;101041.13;5037917;28;45468;-56
2022/11/01 02:22:31;;;;;;;;;0.00;0.00;;;;;16.06;58.16;101041.97;5037965;28;45477;-55
2022/11/01 02:25:21;;;;;;;;;1.00;0.00;;;;;16.02;58.53;101042.50;5038093;28;45343;-56
2022/11/01 02:28:19;;;;;;;;;0.00;0.00;;;;;15.96;58.65;101039.47;5038143;28;45378;-56
2022/11/01 02:31:06;;;;;;;;;3.50;0.00;;;;;15.84;58.93;101029.31;5037898;28;45370;-55
2022/11/01 02:33:42;;;;;;;;;0.25;0.00;;;;;15.87;59.39;101039.69;5037588;28;45462;-55
2022/11/01 02:36:17;;;;;;;;;0.00;0.00;;;;;15.85;59.07;101049.78;5038044;28;45351;-56
2022/11/01 02:38:50;;;;;;;;;1.50;0.00;;;;;15.82;59.28;101047.44;5038163;28;45307;-55
2022/11/01 02:41:50;;;;;;;;;2.75;1.00;;;;;15.76;59.12;101053.47;5037881;28;45320;-56
2022/11/01 02:44:23;;;;;;;;;2.00;0.00;;;;;15.70;59.19;101050.47;4995944;28;45386;-55
2022/11/01 02:47:01;;;;;;;;;0.75;0.00;;;;;15.70;58.98;101055.00;4995820;28;45323;-56
2022/11/01 02:49:39;;;;;;;;;0.00;0.00;;;;;15.64;58.81;101055.69;4995927;28;45578;-56
2022/11/01 02:52:09;;;;;;;;;1.50;0.00;;;;;15.64;58.37;101056.56;4995613;28;47692;-57
2022/11/01 02:54:39;;;;;;;;;2.00;1.00;;;;;15.61;58.88;101067.56;4995729;28;45440;-56
2022/11/01 02:57:36;;;;;;;;;2.25;0.00;;;;;15.56;58.30;101064.59;4995743;28;45524;-52
2022/11/01 03:00:28;;;;;;;;;1.33;0.00;;;;;15.54;58.74;101063.91;4995211;28;45646;-52
2022/11/01 03:03:05;;;;;;;;;0.33;0.33;;;;;15.53;58.33;101066.75;4995329;28;47056;-56
2022/11/01 03:05:43;;;;;;;;;4.00;1.00;;;;;15.49;58.58;101077.00;4995124;28;45465;-57
2022/11/01 03:08:13;;;;;;;;;0.25;0.00;;;;;15.44;58.57;101095.44;4995422;28;45192;-56
2022/11/01 03:10:52;;;;;;;;;0.00;0.00;;;;;15.39;59.04;101079.88;4995539;28;45326;-55
2022/11/01 03:13:45;;;;;;;;;5.00;0.67;;;;;15.38;59.26;101096.09;4995223;28;46956;-55
2022/11/01 03:16:37;;;;;;;;;1.00;1.00;;;;;15.39;59.07;101097.78;4995239;28;45443;-55
2022/11/01 03:19:06;;;;;;;;;0.33;0.00;;;;;15.38;59.25;101102.31;5001909;28;45406;-57
2022/11/01 03:21:42;;;;;;;;;1.00;0.33;;;;;15.38;58.98;101114.88;5037443;28;45360;-56
2022/11/01 03:24:21;;;;;;;;;0.00;0.00;;;;;15.39;59.15;101121.91;5036894;28;46339;-57
2022/11/01 03:26:53;;;;;;;;;2.00;0.00;;;;;15.29;58.98;101106.00;5037009;28;45190;-57
2022/11/01 03:29:22;;;;;;;;;4.00;1.00;;;;;15.36;58.92;101117.72;5036996;28;45250;-57
2022/11/01 03:31:50;;;;;;;;;2.00;1.00;;;;;15.35;59.05;101128.63;5037447;28;45403;-56
2022/11/01 03:34:18;;;;;;;;;1.33;0.00;;;;;15.26;59.22;101110.88;5036705;28;46454;-55
2022/11/01 03:36:52;;;;;;;;;2.67;0.00;;;;;15.26;59.22;101138.50;5036883;28;45240;-55
2022/11/01 03:39:24;;;;;;;;;0.33;0.33;;;;;15.23;59.20;101141.53;5037148;28;45288;-56
2022/11/01 03:41:55;;;;;;;;;0.33;0.33;;;;;15.19;59.32;101145.53;5037203;28;45328;-56
2022/11/01 03:44:21;;;;;;;;;1.00;1.00;;;;;15.21;59.66;101152.41;5036438;28;47203;-57
2022/11/01 03:46:48;;;;;;;;;1.67;0.00;;;;;15.19;59.72;101154.41;5036668;28;45359;-56
2022/11/01 03:49:18;;;;;;;;;0.00;0.00;;;;;15.10;59.61;101150.06;5036712;28;45410;-55
2022/11/01 03:51:43;;;;;;;;;1.67;0.00;;;;;15.16;59.76;101160.09;5036993;28;45504;-56
2022/11/01 03:54:09;;;;;;;;;0.67;0.00;;;;;15.18;60.08;101184.91;5036657;28;47259;-53
2022/11/01 03:56:39;;;;;;;;;0.67;0.67;;;;;15.11;59.91;101181.19;5036680;28;45305;-54
2022/11/01 03:59:05;;;;;;;;;0.33;0.00;;;;;15.10;60.12;101195.59;5036837;28;45377;-53
2022/11/01 04:01:30;;;;;;;;;0.00;0.00;;;;;15.08;60.19;101202.97;5037067;28;45291;-54
2022/11/01 04:03:55;;;;;;;;;0.00;0.00;;;;;15.07;60.46;101198.59;5035877;28;45398;-57
2022/11/01 04:06:21;;;;;;;;;0.00;0.00;;;;;15.05;60.27;101203.31;5035206;28;45437;-56
2022/11/01 04:08:46;;;;;;;;;1.67;1.00;;;;;15.04;60.55;101206.97;5036793;28;45375;-49
2022/11/01 04:11:11;;;;;;;;;0.00;0.00;;;;;15.02;60.49;101214.34;5036706;28;45415;-55
2022/11/01 04:13:37;;;;;;;;;7.00;1.00;;;;;14.97;60.42;101205.97;5036394;28;46909;-51
2022/11/01 04:20:31;;;;;;;;;1.00;0.00;;;;;14.94;60.56;101217.00;5039854;28;45307;-57
2022/11/01 04:21:39;;;;;;;;;1.33;0.00;;;;;14.95;60.65;101235.59;5040138;28;45543;-55
2022/11/01 04:24:05;;;;;;;;;1.33;0.00;;;;;14.85;60.78;101232.22;5039942;28;46471;-55
2022/11/01 04:26:30;;;;;;;;;0.00;0.00;;;;;14.90;60.98;101251.31;5039773;28;45409;-56
2022/11/01 04:28:55;;;;;;;;;3.67;1.00;;;;;14.91;60.77;101260.19;5039970;28;45827;-57
2022/11/01 04:31:27;;;;;;;;;2.00;0.00;;;;;14.80;60.74;101241.75;5040117;28;45283;-53
2022/11/01 04:33:54;;;;;;;;;1.00;0.00;;;;;14.85;60.84;101258.16;5039499;28;46174;-52
2022/11/01 04:36:19;;;;;;;;;2.33;1.00;;;;;14.71;60.95;101243.56;5039674;28;45430;-54
2022/11/01 04:38:48;;;;;;;;;1.00;0.00;;;;;14.81;61.16;101267.53;5039806;28;45370;-55
2022/11/01 04:41:16;;;;;;;;;1.00;1.00;;;;;14.82;61.32;101266.53;5039988;28;45493;-59
2022/11/01 04:43:41;;;;;;;;;5.00;1.00;;;;;14.79;61.19;101277.53;5039487;28;46224;-57
2022/11/01 04:46:06;;;;;;;;;2.00;0.00;;;;;14.74;60.98;101280.72;5039232;28;45449;-56
2022/11/01 04:48:32;;;;;;;;;3.00;0.00;;;;;14.65;61.08;101282.50;5039673;28;45363;-55
2022/11/01 04:50:59;;;;;;;;;0.33;0.00;;;;;14.65;61.05;101290.53;5039555;28;45170;-56
2022/11/01 04:53:24;;;;;;;;;1.33;0.00;;;;;14.65;61.43;101285.19;5039437;28;45408;-57
2022/11/01 04:55:50;;;;;;;;;2.67;1.00;;;;;14.64;61.61;101288.03;5039419;28;45380;-60
2022/11/01 04:58:15;;;;;;;;;0.00;0.00;;;;;14.62;61.53;101288.22;5039418;28;45367;-57
2022/11/01 05:00:42;;;;;;;;;3.00;0.67;;;;;14.59;61.63;101298.41;5039591;28;45395;-56
2022/11/01 05:03:10;;;;;;;;;0.00;0.00;;;;;14.53;61.94;101302.53;5039249;28;46125;-50
2022/11/01 05:05:35;;;;;;;;;4.67;1.00;;;;;14.55;62.09;101310.41;5039106;28;45309;-58
2022/11/01 05:08:03;;;;;;;;;3.00;0.67;;;;;14.55;61.88;101318.44;5039451;28;45236;-57
2022/11/01 05:10:29;;;;;;;;;4.00;1.00;;;;;14.54;62.01;101306.91;5038205;28;45481;-54
2022/11/01 05:12:55;;;;;;;;;8.00;1.00;;;;;14.51;62.16;101317.91;5038977;28;45351;-56
2022/11/01 05:15:20;;;;;;;;;1.00;0.33;;;;;14.50;61.67;101316.25;5039111;28;45375;-57
2022/11/01 05:17:46;;;;;;;;;4.00;1.00;;;;;14.33;62.29;101293.03;5039213;28;45429;-57
2022/11/01 05:20:11;;;;;;;;;0.33;0.33;;;;;14.34;62.57;101329.50;5039351;28;45269;-56
2022/11/01 05:22:36;;;;;;;;;0.67;0.67;;;;;14.21;62.84;101314.69;5038982;28;46387;-54
2022/11/01 05:25:03;;;;;;;;;2.00;1.00;;;;;14.23;63.21;101325.22;5038696;28;45441;-57
2022/11/01 05:27:29;;;;;;;;;1.67;1.00;;;;;14.18;63.12;101320.34;5038995;28;45245;-54
2022/11/01 05:29:54;;;;;;;;;0.00;0.00;;;;;14.18;63.34;101336.41;5039348;28;45469;-56
2022/11/01 05:32:20;;;;;;;;;4.33;0.67;;;;;14.07;63.93;101325.94;5038754;28;47125;-54
2022/11/01 05:34:45;;;;;;;;;3.00;0.00;;;;;14.09;64.01;101339.19;5038717;28;45212;-56
2022/11/01 05:37:11;;;;;;;;;1.00;1.00;;;;;14.10;63.64;101336.34;5038776;28;45236;-56
2022/11/01 05:39:36;;;;;;;;;5.67;0.67;;;;;14.15;63.91;101346.56;5039059;28;45710;-56
2022/11/01 05:42:02;;;;;;;;;2.33;1.33;;;;;14.14;63.86;101342.22;5038649;28;45384;-54
2022/11/01 05:44:27;;;;;;;;;1.00;1.00;;;;;14.08;64.04;101343.69;5038476;28;45354;-56
2022/11/01 05:46:52;;;;;;;;;3.67;1.33;;;;;14.10;64.04;101348.88;5038665;28;45428;-56
2022/11/01 05:49:18;;;;;;;;;3.67;1.33;;;;;14.08;63.64;101362.41;5038781;28;45425;-56
2022/11/01 05:51:43;;;;;;;;;2.00;1.00;;;;;14.00;63.93;101357.00;5038666;28;46309;-56
2022/11/01 05:54:08;;;;;;;;;0.67;0.00;;;;;13.96;64.24;101355.63;5038582;28;45219;-55
2022/11/01 05:56:33;;;;;;;;;3.67;0.67;;;;;13.90;64.06;101357.06;5038671;28;45335;-56
2022/11/01 05:58:59;;;;;;;;;3.67;1.00;;;;;13.91;64.76;101352.56;5038400;28;45510;-55
2022/11/01 06:01:24;;;;;;;;;2.00;1.00;;;;;13.93;64.27;101348.72;5038295;28;47127;-56
2022/11/01 06:03:49;;;;;;;;;2.33;2.33;;;;;13.84;64.35;101346.97;5038238;28;45415;-56
2022/11/01 06:06:15;;;;;;;;;3.00;2.00;;;;;13.85;64.42;101356.69;5038435;28;45314;-56
2022/11/01 06:08:40;;;;;;;;;3.00;1.00;;;;;13.84;64.51;101359.53;5038602;28;45518;-56
2022/11/01 06:11:06;;;;;;;;;8.00;1.33;;;;;13.83;64.88;101363.19;5037915;28;46259;-54
2022/11/01 06:13:32;;;;;;;;;2.00;0.67;;;;;13.84;64.62;101368.38;5038112;28;45284;-55
2022/11/01 06:16:03;;;;;;;;;2.00;0.00;;;;;13.88;64.41;101369.75;5038469;28;45422;-57
2022/11/01 06:18:28;;;;;;;;;4.00;1.00;;;;;13.85;64.64;101353.16;5038339;28;45547;-55
2022/11/01 06:20:54;;;;;;;;;3.00;1.00;;;;;13.88;64.52;101374.28;5037673;28;46129;-56
2022/11/01 06:23:19;;;;;;;;;2.67;0.67;;;;;13.86;64.74;101369.09;5038380;28;45382;-55
2022/11/01 06:25:45;;;;;;;;;1.00;0.00;;;;;13.83;64.84;101379.25;5038487;28;45236;-56
2022/11/01 06:28:10;;;;;;;;;2.33;1.00;;;;;13.82;64.90;101377.53;5038705;28;45377;-56
2022/11/01 06:30:39;;;;;;;;;7.00;0.00;;;;;13.76;64.77;101381.66;5038420;28;45523;-55
2022/11/01 06:33:05;;;;;;;;;3.00;1.00;;;;;13.76;65.09;101386.19;5038041;28;45228;-56
2022/11/01 06:35:31;;;;;;;;;3.67;1.00;;;;;13.74;64.70;101394.38;5037990;28;45429;-56
2022/11/01 06:38:02;;;;;;;;;1.67;1.00;;;;;13.67;65.12;101387.94;5036742;28;45301;-55
2022/11/01 06:40:27;;;;;;;;;3.33;1.00;;;;;13.64;65.58;101393.56;5037201;28;45865;-56
2022/11/01 06:42:58;;;;;;;;;8.67;2.00;;;;;13.65;65.36;101390.75;5037780;28;45399;-57
2022/11/01 06:45:23;;;;;;;;;4.33;0.67;;;;;13.63;65.47;101395.41;5037620;28;45532;-55
2022/11/01 06:47:48;;;;;;;;;2.00;0.67;;;;;13.66;65.14;101391.59;5037829;28;45457;-55
2022/11/01 06:50:14;;;;;;;;;2.00;1.00;;;;;13.64;65.56;101394.41;5037386;28;46185;-53
2022/11/01 06:52:39;;;;;;;;;1.00;1.00;;;;;13.61;65.71;101408.09;5037673;28;45358;-56
2022/11/01 06:55:05;;;;;;;;;3.33;2.00;;;;;13.58;66.22;101408.38;5037741;28;45315;-54
2022/11/01 06:57:30;;;;;;;;;3.00;0.00;;;;;13.58;66.12;101404.88;5037427;28;45367;-55
2022/11/01 06:59:57;;;;;;;;;2.00;2.00;;;;;13.60;66.26;101414.41;5038211;28;46007;-58
2022/11/01 07:02:24;;;;;;;;;2.00;0.00;;;;;13.56;66.23;101423.72;5038692;28;45269;-56
2022/11/01 07:04:49;;;;;;;;;4.00;2.00;;;;;13.54;66.25;101415.03;5038956;28;45232;-55
2022/11/01 07:07:15;;;;;;;;;2.33;1.00;;;;;13.54;66.19;101427.56;5039155;28;45331;-56
2022/11/01 07:09:40;;;;;;;;;4.33;1.00;;;;;13.54;66.48;101420.38;5037633;28;47162;-56
2022/11/01 07:12:05;;;;;;;;;0.33;0.33;;;;;13.55;66.09;101427.38;5036559;28;45363;-55
2022/11/01 07:14:31;;;;;;;;;2.00;0.00;;;;;13.55;66.37;101422.03;5038015;28;45326;-55
2022/11/01 07:16:56;;;;;;;;;4.00;1.00;;;;;13.45;66.33;101413.25;5037451;28;45393;-56
2022/11/01 07:19:22;;;;;;;;;2.00;1.00;;;;;13.57;66.29;101422.75;5036978;28;46269;-55
2022/11/01 07:21:48;;;;;;;;;2.00;1.67;;;;;13.50;66.22;101416.31;5036800;28;45325;-56
2022/11/01 07:24:13;;;;;;;;;2.67;1.00;;;;;13.51;66.51;101431.34;5037195;28;45228;-56
2022/11/01 07:26:39;;;;;;;;;8.00;1.67;;;;;13.52;66.59;101432.19;5037355;28;45215;-55
2022/11/01 07:29:04;;;;;;;;;0.67;0.67;;;;;13.53;66.13;101441.91;5036711;28;45262;-55
2022/11/01 07:31:32;;;;;;;;;3.67;1.00;;;;;13.55;66.25;101450.63;5037003;28;45364;-56
2022/11/01 07:33:57;;;;;;;;;4.00;2.00;;;;;13.59;66.12;101454.66;5037101;28;45402;-56
2022/11/01 07:36:23;;;;;;;;;1.33;1.00;;;;;13.53;66.38;101445.44;5037031;28;45477;-55
2022/11/01 07:38:48;;;;;;;;;5.67;1.00;;;;;13.64;66.26;101465.75;5036782;28;45878;-56
2022/11/01 07:41:14;;;;;;;;;3.00;2.00;;;;;13.67;65.90;101468.13;5036774;28;45417;-56
2022/11/01 07:43:39;;;;;;;;;0.00;0.00;;;;;13.69;65.84;101461.66;5037191;28;45453;-57
2022/11/01 07:46:06;;;;;;;;;2.00;1.00;;;;;13.70;65.69;101463.34;5036920;28;45335;-55
2022/11/01 07:48:32;;;;;;;;;2.00;0.67;;;;;13.62;65.50;101455.22;5036891;28;45668;-57
2022/11/01 07:50:58;;;;;;;;;4.00;2.00;;;;;13.75;66.04;101465.56;5037262;28;45300;-55
2022/11/01 07:53:24;;;;;;;;;1.67;1.00;;;;;13.81;65.42;101466.78;5040570;28;45434;-53
2022/11/01 07:55:50;;;;;;;;;2.00;1.00;;;;;13.83;65.51;101481.69;5040709;28;45382;-56
2022/11/01 07:58:16;;;;;;;;;3.33;1.33;;;;;13.84;65.65;101485.22;5040146;28;46173;-55
2022/11/01 08:00:42;;;;;;;;;2.67;1.00;;;;;13.78;65.54;101464.41;5040075;28;45418;-55
2022/11/01 08:03:11;;;;;;;;;1.00;1.00;;;;;13.87;65.19;101488.44;5040174;28;45446;-56
2022/11/01 08:05:37;;;;;;;;;2.00;2.00;;;;;13.91;65.22;101491.66;5039094;28;45341;-52
2022/11/01 08:08:03;;;;;;;;;3.00;2.00;;;;;13.92;64.91;101493.34;5040143;28;46160;-53
2022/11/01 08:10:28;;;;;;;;;5.00;2.00;;;;;13.90;65.06;101477.41;5039994;28;45593;-56
2022/11/01 08:13:06;;;;;;;;;2.00;0.00;;;;;13.96;65.08;101494.72;5040168;28;45343;-56
2022/11/01 08:15:32;;;;;;;;;2.33;1.00;;;;;13.95;64.82;101482.34;5040220;28;45545;-54
2022/11/01 08:17:57;;;;;;;;;4.00;1.00;;;;;14.02;64.98;101495.94;5039744;28;46039;-58
2022/11/01 08:20:24;;;;;;;;;5.00;2.00;;;;;14.00;64.95;101490.75;5039845;28;45406;-55
2022/11/01 08:22:50;;;;;;;;;3.67;1.00;;;;;14.05;64.97;101492.97;5039997;28;45385;-55
2022/11/01 08:25:16;;;;;;;;;1.00;1.00;;;;;14.14;64.51;101489.38;5040050;28;45333;-55
2022/11/01 08:27:41;;;;;;;;;1.00;1.00;;;;;14.19;65.03;101492.44;5039679;28;46644;-57
2022/11/01 08:30:07;;;;;;;;;1.00;1.00;;;;;14.20;64.30;101489.63;5039860;28;45315;-53
2022/11/01 08:32:33;;;;;;;;;3.00;1.00;;;;;14.27;64.61;101483.66;5041520;28;46111;-56
2022/11/01 08:34:58;;;;;;;;;3.00;1.00;;;;;14.33;64.21;101491.09;5063060;28;45321;-56
2022/11/01 08:37:23;;;;;;;;;2.00;1.00;;;;;14.38;64.03;101478.91;5059014;28;46251;-56
2022/11/01 08:39:49;;;;;;;;;1.00;1.00;;;;;14.44;64.05;101482.81;5061300;28;45440;-57
2022/11/01 08:42:14;;;;;;;;;1.00;1.00;;;;;14.47;63.80;101479.81;5059300;28;45229;-57
2022/11/01 08:44:39;;;;;;;;;5.00;2.00;;;;;14.49;63.58;101480.53;5059696;28;45427;-53
2022/11/01 08:47:05;;;;;;;;;6.00;1.00;;;;;14.53;63.43;101486.41;5058821;28;46071;-58
2022/11/01 08:49:30;;;;;;;;;4.67;0.00;;;;;14.63;64.17;101489.88;5058420;28;45428;-57
2022/11/01 08:51:56;;;;;;;;;2.00;0.00;;;;;14.67;63.25;101492.09;5058768;28;45488;-53
2022/11/01 08:54:21;;;;;;;;;2.67;1.00;;;;;14.69;63.18;101484.72;5058805;28;45427;-61
2022/11/01 08:56:47;;;;;;;;;1.33;1.33;;;;;14.89;62.82;101498.78;5057123;28;46268;-59
2022/11/01 08:59:12;;;;;;;;;5.00;1.00;;;;;15.04;62.63;101491.00;5058478;28;45326;-58
2022/11/01 09:01:37;;;;;;;;;3.67;1.33;;;;;15.17;61.79;101494.13;5058058;28;45319;-60
2022/11/01 09:04:04;;;;;;;;;2.67;0.00;;;;;15.37;61.52;101492.03;5058656;28;45433;-58
2022/11/01 09:06:29;;;;;;;;;1.33;1.00;;;;;16.13;60.08;101488.47;5057992;28;47323;-60
2022/11/01 09:08:55;;;;;;;;;5.33;2.33;;;;;16.99;58.24;101483.66;5058232;28;45376;-60
2022/11/01 09:11:22;;;;;;;;;0.00;0.00;;;;;17.59;56.37;101483.97;5058230;28;45294;-57
2022/11/01 09:13:49;;;;;;;;;4.00;1.75;;;;;18.31;55.27;101478.38;5058341;28;45427;-56
2022/11/01 09:16:15;;;;;;;;;1.75;0.00;;;;;18.81;52.96;101485.06;5057883;28;46552;-58
2022/11/01 09:18:41;;;;;;;;;5.25;0.75;;;;;19.37;51.33;101481.97;5057830;28;45446;-56
2022/11/01 09:21:06;;;;;;;;;1.50;1.25;;;;;19.81;50.53;101479.25;5058019;28;45360;-56
2022/11/01 09:23:36;;;;;;;;;3.00;2.50;;;;;20.15;49.72;101478.59;5057980;28;45505;-53
2022/11/01 09:26:07;;;;;;;;;1.00;1.00;;;;;20.50;49.09;101476.03;5057543;28;47032;-55
2022/11/01 09:28:32;;;;;;;;;3.00;2.00;;;;;20.90;48.36;101474.53;5057699;28;45421;-57
2022/11/01 09:31:07;;;;;;;;;1.00;1.00;;;;;21.37;47.12;101478.38;5057861;28;45402;-52
2022/11/01 09:33:34;;;;;;;;;3.00;1.00;;;;;21.66;46.08;101488.09;5057799;28;45411;-57
2022/11/01 09:36:00;;;;;;;;;1.60;1.00;;;;;21.87;45.79;101489.03;5057517;28;47401;-59
2022/11/01 09:38:25;;;;;;;;;4.00;1.00;;;;;22.04;45.52;101465.94;5057484;28;45438;-56
2022/11/01 09:41:17;;;;;;;;;3.50;1.00;;;;;22.20;45.59;101475.56;5057596;28;45248;-57
2022/11/01 09:43:45;;;;;;;;;6.80;1.00;;;;;22.53;44.05;101494.59;5057852;28;45342;-55
2022/11/01 09:46:15;;;;;;;;;5.00;2.00;;;;;22.66;44.54;101481.03;5013723;28;1266093;-56
2022/11/01 09:48:42;;;;;;;;;3.00;1.60;;;;;22.93;43.54;101502.78;5058745;28;45452;-57
2022/11/01 09:51:16;;;;;;;;;3.00;1.80;;;;;22.93;43.39;101493.81;5058603;28;45716;-56
2022/11/01 09:53:42;;;;;;;;;2.00;1.00;;;;;22.96;43.75;101502.34;5058950;28;45391;-54
2022/11/01 09:56:09;;;;;;;;;4.50;1.25;;;;;22.89;42.61;101496.91;5058539;28;45349;-58
2022/11/01 09:58:37;;;;;;;;;1.40;1.00;;;;;22.93;42.62;101513.63;5058426;28;45417;-54
2022/11/01 10:01:40;;;;;;;;;3.20;0.40;;;;;22.83;44.31;101505.03;5058662;28;45211;-60
2022/11/01 10:04:45;;;;;;;;;1.60;1.00;;;;;22.50;43.96;101496.88;5058922;28;45266;-59
2022/11/01 10:07:31;;;;;;;;;0.00;0.00;;;;;22.38;43.69;101508.34;5058253;28;46201;-57
2022/11/01 10:10:33;;;;;;;;;1.40;1.40;;;;;22.21;44.21;101506.25;5058220;28;45168;-48
2022/11/01 10:13:31;;;;;;;;;0.60;0.60;;;;;22.10;43.87;101505.75;5051088;28;45544;-50
2022/11/01 10:16:21;;;;;;;;;2.60;0.80;;;;;22.06;44.84;101509.06;5058697;28;45438;-51
2022/11/01 10:19:13;;;;;;;;;2.40;1.00;;;;;22.13;44.12;101512.69;5058204;28;45922;-55
2022/11/01 10:22:03;;;;;;;;;2.00;1.00;;;;;22.22;44.72;101503.31;5056459;28;45185;-51
2022/11/01 10:24:42;;;;;;;;;1.40;0.60;;;;;22.30;44.16;101508.56;5058309;28;45370;-51
2022/11/01 10:27:15;;;;;;;;;2.00;1.00;;;;;22.42;43.27;101509.63;5058533;28;45351;-51
2022/11/01 10:30:02;;;;;;;;;6.80;1.40;;;;;22.51;44.51;101510.25;5057797;28;47384;-52
2022/11/01 10:32:56;;;;;;;;;3.80;1.40;;;;;22.49;44.38;101517.75;5057907;28;45338;-52
2022/11/01 10:35:35;;;;;;;;;2.40;0.60;;;;;22.36;43.63;101517.72;5058039;28;45438;-51
2022/11/01 10:38:13;;;;;;;;;3.80;1.00;;;;;22.34;43.88;101511.69;5058031;28;45311;-52
2022/11/01 10:40:55;;;;;;;;;5.00;1.00;;;;;22.28;43.89;101499.78;5057591;28;45464;-50
2022/11/01 10:43:23;;;;;;;;;1.00;1.00;;;;;22.23;43.56;101493.31;5057718;28;45559;-50
2022/11/01 10:45:51;;;;;;;;;3.80;0.40;;;;;22.39;44.17;101511.91;5057979;28;45347;-53
2022/11/01 10:48:43;;;;;;;;;3.00;1.00;;;;;22.51;44.19;101506.72;5057966;28;45532;-50
2022/11/01 10:51:09;;;;;;;;;1.40;0.00;;;;;22.74;43.14;101500.88;5057576;28;46269;-53
2022/11/01 10:53:58;;;;;;;;;1.40;0.00;;;;;22.83;42.49;101491.47;5057421;28;45399;-53
2022/11/01 10:56:29;;;;;;;;;2.80;0.80;;;;;22.97;42.40;101493.19;5057940;28;45203;-52
2022/11/01 10:59:21;;;;;;;;;2.00;2.00;;;;;23.27;42.21;101484.56;5057921;28;45591;-53
2022/11/01 11:01:49;;;;;;;;;2.00;1.80;;;;;23.61;40.83;101488.84;5057531;28;46978;-54
2022/11/01 11:04:16;;;;;;;;;3.00;1.20;;;;;23.76;40.42;101486.69;5057412;28;45429;-51
2022/11/01 11:06:42;;;;;;;;;3.00;2.00;;;;;23.84;39.91;101500.03;5057480;28;45495;-55
2022/11/01 11:09:20;;;;;;;;;2.20;1.00;;;;;24.14;39.92;101491.31;5057762;28;45224;-50
2022/11/01 11:11:47;;;;;;;;;3.60;1.80;;;;;24.57;39.12;101488.75;5057297;28;45359;-50
2022/11/01 11:14:14;;;;;;;;;0.80;0.80;;;;;24.63;38.49;101484.31;5057362;28;45342;-52
2022/11/01 11:16:51;;;;;;;;;1.60;0.20;;;;;24.89;38.24;101494.13;5057574;28;45369;-55
2022/11/01 11:19:28;;;;;;;;;4.60;1.20;;;;;25.01;38.90;101491.53;5057190;28;45593;-56
2022/11/01 11:21:55;;;;;;;;;0.40;0.00;;;;;25.07;37.77;101506.94;5057035;28;46225;-52
2022/11/01 11:24:31;;;;;;;;;3.00;1.40;;;;;25.20;38.03;101484.22;5057197;28;45386;-57
2022/11/01 11:26:57;;;;;;;;;0.40;0.40;;;;;25.16;37.12;101489.31;5057274;28;45461;-50
2022/11/01 11:29:39;;;;;;;;;1.20;1.00;;;;;24.63;38.30;101479.69;5057367;28;45593;-53
2022/11/01 11:32:13;;;;;;;;;1.20;0.00;;;;;24.77;38.24;101461.38;5057192;28;45430;-53
2022/11/01 11:34:40;;;;;;;;;2.60;0.20;;;;;24.60;38.60;101480.13;5057191;28;45398;-58
2022/11/01 11:37:07;;;;;;;;;4.00;1.00;;;;;24.54;38.87;101482.94;5057246;28;45385;-58
2022/11/01 11:39:36;;;;;;;;;1.00;1.00;;;;;23.76;39.69;101491.31;5057109;28;45622;-53
2022/11/01 11:42:13;;;;;;;;;3.80;2.00;;;;;23.08;41.08;101483.53;5056680;28;46404;-55